Valle Azzurra — ICEG — position and weather

sailwx.info

Track history (hours):
 
Tides and Currents Weather Stations Pressure Air Temp Water Temp Dewpoint Dewpoint Depression Visibility Wind Speed Wind Dir Waves Ship Positions

Valle Azzurra

Last reported at 2017-Jun-25 08:00 UTC. Time now 2017-Jun-29 16:00 UTC.
Position N 39°48' E 025°58'.

Length 183 m; draft 8 m.

Type: Tanker. MMSI: 247226600.

Date/timePositionNaut miles runAvg speedWind from/ knotsBaromVisibWave heightAir tempDewpointWater temp
2017-Jun-25 08:00N 39°48' E 025°58'0 0.0
2017-Jun-25 02:41N 39°48' E 025°58'0 0.0
2017-Jun-25 02:29N 39°48' E 025°58'89 6.4
2017-Jun-24 12:40N 38°29' E 025°06'213.1
2017-Jun-24 12:30N 38°27' E 025°04'68 8.0
2017-Jun-24 03:57N 37°38' E 024°04'611.7
2017-Jun-24 03:25N 37°32' E 024°02'511.9
2017-Jun-24 03:00N 37°27' E 023°60'611.7
2017-Jun-24 02:30N 37°22' E 023°57'611.7
2017-Jun-24 02:00N 37°16' E 023°54'611.7
2017-Jun-24 01:31N 37°11' E 023°52'611.9
2017-Jun-24 01:01N 37°05' E 023°49'612.4
2017-Jun-24 00:31N 36°59' E 023°47'612.3
2017-Jun-24 00:00N 36°53' E 023°44'712.5
2017-Jun-23 23:28N 36°47' E 023°40'612.3
2017-Jun-23 23:00N 36°42' E 023°37'612.5
2017-Jun-23 22:30N 36°37' E 023°33'5410.4
2017-Jun-23 17:20N 36°05' E 022°40'35312.2
2017-Jun-22 12:22N 36°26' E 015°23'514.8
2017-Jun-22 12:00N 36°26' E 015°16'1015.1
2017-Jun-22 11:20N 36°27' E 015°03'413.8
2017-Jun-22 11:00N 36°27' E 014°58'713.5
2017-Jun-22 10:30N 36°27' E 014°49'713.3
2017-Jun-22 10:00N 36°28' E 014°41'613.0
2017-Jun-22 09:30N 36°29' E 014°33'713.7
2017-Jun-22 09:00N 36°32' E 014°26'713.6
2017-Jun-22 08:30N 36°36' E 014°19'713.4
2017-Jun-22 08:00N 36°39' E 014°11'713.3
2017-Jun-22 07:30N 36°42' E 014°04'713.3
2017-Jun-22 07:00N 36°46' E 013°57'713.5
2017-Jun-22 06:30N 36°49' E 013°50'713.3
2017-Jun-22 06:00N 36°53' E 013°43'713.2
2017-Jun-22 05:30N 36°56' E 013°36'713.1
2017-Jun-22 05:00N 36°59' E 013°28'713.1
2017-Jun-22 04:30N 37°01' E 013°21'612.8
2017-Jun-22 04:00N 37°05' E 013°14'612.7
2017-Jun-22 03:30N 37°08' E 013°07'612.7
2017-Jun-22 03:00N 37°12' E 013°01'612.6
2017-Jun-22 02:30N 37°14' E 012°53'612.4
2017-Jun-22 02:00N 37°18' E 012°47'612.6
2017-Jun-22 01:30N 37°21' E 012°40'612.6
2017-Jun-22 01:00N 37°24' E 012°33'612.9
2017-Jun-22 00:30N 37°27' E 012°26'713.1
2017-Jun-22 00:00N 37°30' E 012°18'712.9
2017-Jun-21 23:30N 37°33' E 012°11'613.1
2017-Jun-21 23:00N 37°36' E 012°04'613.0
2017-Jun-21 22:30N 37°39' E 011°57'713.1
2017-Jun-21 22:00N 37°42' E 011°50'1512.5
2017-Jun-21 20:47N 37°50' E 011°33'312.4
2017-Jun-21 20:30N 37°51' E 011°29'812.4
2017-Jun-21 19:52N 37°55' E 011°20'612.7
2017-Jun-21 19:24N 37°58' E 011°13'812.9
2017-Jun-21 18:48N 38°01' E 011°04'413.3
2017-Jun-21 18:29N 38°01' E 010°59'713.2
2017-Jun-21 17:59N 38°01' E 010°50'1013.1
2017-Jun-21 17:15N 38°01' E 010°38'313.0
2017-Jun-21 17:00N 38°01' E 010°34'713.0
2017-Jun-21 16:28N 38°01' E 010°25'912.8
2017-Jun-21 15:48N 38°01' E 010°14'412.6
2017-Jun-21 15:30N 38°01' E 010°09'612.5
2017-Jun-21 14:59N 38°01' E 010°01'612.4
2017-Jun-21 14:30N 38°01' E 009°54'1312.7
2017-Jun-21 13:30N 38°00' E 009°38'612.8
2017-Jun-21 13:00N 38°00' E 009°30'612.6
2017-Jun-21 12:30N 38°00' E 009°22'612.6
2017-Jun-21 11:59N 38°00' E 009°13'612.7
2017-Jun-21 11:30N 38°00' E 009°06'612.9
2017-Jun-21 11:00N 38°00' E 008°57'613.0
2017-Jun-21 10:30N 38°00' E 008°49'712.9
2017-Jun-21 10:00N 37°60' E 008°41'613.1
2017-Jun-21 09:30N 37°59' E 008°33'713.1
2017-Jun-21 08:57N 37°59' E 008°24'10012.9
2017-Jun-21 01:14N 37°54' E 006°17'313.2
2017-Jun-21 01:00N 37°54' E 006°13'713.2
2017-Jun-21 00:30N 37°54' E 006°05'913.2
2017-Jun-20 23:51N 37°53' E 005°54'1013.0
2017-Jun-20 23:05N 37°52' E 005°42'113.3
2017-Jun-20 23:00N 37°52' E 005°40'812.8
2017-Jun-20 22:21N 37°52' E 005°30'512.7
2017-Jun-20 21:57N 37°52' E 005°23'612.7
2017-Jun-20 21:30N 37°51' E 005°16'2912.6
2017-Jun-20 19:13N 37°50' E 004°39'312.7
2017-Jun-20 18:58N 37°50' E 004°36'612.8
2017-Jun-20 18:29N 37°49' E 004°28'912.9
2017-Jun-20 17:46N 37°49' E 004°16'313.0
2017-Jun-20 17:30N 37°49' E 004°12'612.9
2017-Jun-20 17:00N 37°49' E 004°04'612.8
2017-Jun-20 16:30N 37°48' E 003°56'712.8
2017-Jun-20 16:00N 37°48' E 003°47'612.9
2017-Jun-20 15:30N 37°47' E 003°39'713.0
2017-Jun-20 15:00N 37°46' E 003°31'1312.9
2017-Jun-20 14:00N 37°45' E 003°15'613.0
2017-Jun-20 13:30N 37°44' E 003°07'713.0
2017-Jun-20 13:00N 37°42' E 002°59'713.2
2017-Jun-20 12:30N 37°40' E 002°51'713.1
2017-Jun-20 12:00N 37°38' E 002°43'613.0
2017-Jun-20 11:30N 37°36' E 002°35'612.9
2017-Jun-20 11:00N 37°34' E 002°27'712.4
2017-Jun-20 10:26N 37°32' E 002°19'611.8
2017-Jun-20 09:58N 37°30' E 002°12'511.7
2017-Jun-20 09:30N 37°29' E 002°06'611.6
2017-Jun-20 09:00N 37°27' E 001°59'711.5
2017-Jun-20 08:22N 37°24' E 001°50'411.6
2017-Jun-20 08:00N 37°23' E 001°45'1211.7
2017-Jun-20 06:58N 37°20' E 001°30'511.7
2017-Jun-20 06:30N 37°18' E 001°24'612.0
2017-Jun-20 06:00N 37°17' E 001°17'612.2
2017-Jun-20 05:30N 37°15' E 001°10'612.4
2017-Jun-20 05:00N 37°13' E 001°02'612.7
2017-Jun-20 04:30N 37°11' E 000°55'712.8
2017-Jun-20 03:59N 37°08' E 000°47'612.8
2017-Jun-20 03:30N 37°06' E 000°39'612.9
2017-Jun-20 03:00N 37°04' E 000°32'612.9
2017-Jun-20 02:30N 37°02' E 000°24'612.8
2017-Jun-20 02:00N 37°00' E 000°16'612.6
2017-Jun-20 01:30N 36°59' E 000°09'612.7
2017-Jun-20 01:00N 36°57' E 000°01'612.5
2017-Jun-20 00:30N 36°54' W 000°06'812.3
2017-Jun-19 23:51N 36°52' W 000°16'1312.0
2017-Jun-19 22:46N 36°48' W 000°31'411.9
2017-Jun-19 22:25N 36°47' W 000°36'511.8
2017-Jun-19 22:00N 36°45' W 000°42'811.9
2017-Jun-19 21:21N 36°43' W 000°51'1712.0
2017-Jun-19 19:57N 36°37' W 001°11'512.3
2017-Jun-19 19:30N 36°35' W 001°17'22712.3
2017-Jun-19 01:05N 35°55' W 005°53'112.2
2017-Jun-19 01:00N 35°55' W 005°55'612.7
2017-Jun-19 00:30N 35°55' W 006°02'912.9
2017-Jun-18 23:48N 35°53' W 006°14'6412.9
2017-Jun-18 18:49N 34°55' W 006°47'412.7
2017-Jun-18 18:30N 34°51' W 006°49'612.6
2017-Jun-18 18:00N 34°46' W 006°52'612.8
2017-Jun-18 17:30N 34°40' W 006°55'813.1
2017-Jun-18 16:55N 34°32' W 006°58'513.5
2017-Jun-18 16:31N 34°27' W 007°01'813.3
2017-Jun-18 15:57N 34°20' W 007°04'613.0
2017-Jun-18 15:28N 34°14' W 007°06'813.1
2017-Jun-18 14:50N 34°07' W 007°11'412.9
2017-Jun-18 14:30N 34°03' W 007°13'1511.5
2017-Jun-18 13:12N 33°49' W 007°20'611.3
2017-Jun-18 12:40N 33°44' W 007°23'  
Track history (hours):
 
Tides and Currents Weather Stations Pressure Air Temp Water Temp Dewpoint Dewpoint Depression Visibility Wind Speed Wind Dir Waves Ship Positions

Valle Azzurra

Last reported at 2017-Jun-25 08:00 UTC. Time now 2017-Jun-29 16:00 UTC.
Position N 39°48' E 025°58'.

Length 183 m; draft 8 m.

Type: Tanker. MMSI: 247226600.

Date/timePositionNaut miles runAvg speedWind from/ knotsBaromVisibWave heightAir tempDewpointWater temp
2017-Jun-25 08:00N 39°48' E 025°58'0 0.0
2017-Jun-25 02:41N 39°48' E 025°58'0 0.0
2017-Jun-25 02:29N 39°48' E 025°58'89 6.4
2017-Jun-24 12:40N 38°29' E 025°06'213.1
2017-Jun-24 12:30N 38°27' E 025°04'68 8.0
2017-Jun-24 03:57N 37°38' E 024°04'611.7
2017-Jun-24 03:25N 37°32' E 024°02'511.9
2017-Jun-24 03:00N 37°27' E 023°60'611.7
2017-Jun-24 02:30N 37°22' E 023°57'611.7
2017-Jun-24 02:00N 37°16' E 023°54'611.7
2017-Jun-24 01:31N 37°11' E 023°52'611.9
2017-Jun-24 01:01N 37°05' E 023°49'612.4
2017-Jun-24 00:31N 36°59' E 023°47'612.3
2017-Jun-24 00:00N 36°53' E 023°44'712.5
2017-Jun-23 23:28N 36°47' E 023°40'612.3
2017-Jun-23 23:00N 36°42' E 023°37'612.5
2017-Jun-23 22:30N 36°37' E 023°33'5410.4
2017-Jun-23 17:20N 36°05' E 022°40'35312.2
2017-Jun-22 12:22N 36°26' E 015°23'514.8
2017-Jun-22 12:00N 36°26' E 015°16'1015.1
2017-Jun-22 11:20N 36°27' E 015°03'413.8
2017-Jun-22 11:00N 36°27' E 014°58'713.5
2017-Jun-22 10:30N 36°27' E 014°49'713.3
2017-Jun-22 10:00N 36°28' E 014°41'613.0
2017-Jun-22 09:30N 36°29' E 014°33'713.7
2017-Jun-22 09:00N 36°32' E 014°26'713.6
2017-Jun-22 08:30N 36°36' E 014°19'713.4
2017-Jun-22 08:00N 36°39' E 014°11'713.3
2017-Jun-22 07:30N 36°42' E 014°04'713.3
2017-Jun-22 07:00N 36°46' E 013°57'713.5
2017-Jun-22 06:30N 36°49' E 013°50'713.3
2017-Jun-22 06:00N 36°53' E 013°43'713.2
2017-Jun-22 05:30N 36°56' E 013°36'713.1
2017-Jun-22 05:00N 36°59' E 013°28'713.1
2017-Jun-22 04:30N 37°01' E 013°21'612.8
2017-Jun-22 04:00N 37°05' E 013°14'612.7
2017-Jun-22 03:30N 37°08' E 013°07'612.7
2017-Jun-22 03:00N 37°12' E 013°01'612.6
2017-Jun-22 02:30N 37°14' E 012°53'612.4
2017-Jun-22 02:00N 37°18' E 012°47'612.6
2017-Jun-22 01:30N 37°21' E 012°40'612.6
2017-Jun-22 01:00N 37°24' E 012°33'612.9
2017-Jun-22 00:30N 37°27' E 012°26'713.1
2017-Jun-22 00:00N 37°30' E 012°18'712.9
2017-Jun-21 23:30N 37°33' E 012°11'613.1
2017-Jun-21 23:00N 37°36' E 012°04'613.0
2017-Jun-21 22:30N 37°39' E 011°57'713.1
2017-Jun-21 22:00N 37°42' E 011°50'1512.5
2017-Jun-21 20:47N 37°50' E 011°33'312.4
2017-Jun-21 20:30N 37°51' E 011°29'812.4
2017-Jun-21 19:52N 37°55' E 011°20'612.7
2017-Jun-21 19:24N 37°58' E 011°13'812.9
2017-Jun-21 18:48N 38°01' E 011°04'413.3
2017-Jun-21 18:29N 38°01' E 010°59'713.2
2017-Jun-21 17:59N 38°01' E 010°50'1013.1
2017-Jun-21 17:15N 38°01' E 010°38'313.0
2017-Jun-21 17:00N 38°01' E 010°34'713.0
2017-Jun-21 16:28N 38°01' E 010°25'912.8
2017-Jun-21 15:48N 38°01' E 010°14'412.6
2017-Jun-21 15:30N 38°01' E 010°09'612.5
2017-Jun-21 14:59N 38°01' E 010°01'612.4
2017-Jun-21 14:30N 38°01' E 009°54'1312.7
2017-Jun-21 13:30N 38°00' E 009°38'612.8
2017-Jun-21 13:00N 38°00' E 009°30'612.6
2017-Jun-21 12:30N 38°00' E 009°22'612.6
2017-Jun-21 11:59N 38°00' E 009°13'612.7
2017-Jun-21 11:30N 38°00' E 009°06'612.9
2017-Jun-21 11:00N 38°00' E 008°57'613.0
2017-Jun-21 10:30N 38°00' E 008°49'712.9
2017-Jun-21 10:00N 37°60' E 008°41'613.1
2017-Jun-21 09:30N 37°59' E 008°33'713.1
2017-Jun-21 08:57N 37°59' E 008°24'10012.9
2017-Jun-21 01:14N 37°54' E 006°17'313.2
2017-Jun-21 01:00N 37°54' E 006°13'713.2
2017-Jun-21 00:30N 37°54' E 006°05'913.2
2017-Jun-20 23:51N 37°53' E 005°54'1013.0
2017-Jun-20 23:05N 37°52' E 005°42'113.3
2017-Jun-20 23:00N 37°52' E 005°40'812.8
2017-Jun-20 22:21N 37°52' E 005°30'512.7
2017-Jun-20 21:57N 37°52' E 005°23'612.7
2017-Jun-20 21:30N 37°51' E 005°16'2912.6
2017-Jun-20 19:13N 37°50' E 004°39'312.7
2017-Jun-20 18:58N 37°50' E 004°36'612.8
2017-Jun-20 18:29N 37°49' E 004°28'912.9
2017-Jun-20 17:46N 37°49' E 004°16'313.0
2017-Jun-20 17:30N 37°49' E 004°12'612.9
2017-Jun-20 17:00N 37°49' E 004°04'612.8
2017-Jun-20 16:30N 37°48' E 003°56'712.8
2017-Jun-20 16:00N 37°48' E 003°47'612.9
2017-Jun-20 15:30N 37°47' E 003°39'713.0
2017-Jun-20 15:00N 37°46' E 003°31'1312.9
2017-Jun-20 14:00N 37°45' E 003°15'613.0
2017-Jun-20 13:30N 37°44' E 003°07'713.0
2017-Jun-20 13:00N 37°42' E 002°59'713.2
2017-Jun-20 12:30N 37°40' E 002°51'713.1
2017-Jun-20 12:00N 37°38' E 002°43'613.0
2017-Jun-20 11:30N 37°36' E 002°35'612.9
2017-Jun-20 11:00N 37°34' E 002°27'712.4
2017-Jun-20 10:26N 37°32' E 002°19'611.8
2017-Jun-20 09:58N 37°30' E 002°12'511.7
2017-Jun-20 09:30N 37°29' E 002°06'611.6
2017-Jun-20 09:00N 37°27' E 001°59'711.5
2017-Jun-20 08:22N 37°24' E 001°50'411.6
2017-Jun-20 08:00N 37°23' E 001°45'1211.7
2017-Jun-20 06:58N 37°20' E 001°30'511.7
2017-Jun-20 06:30N 37°18' E 001°24'612.0
2017-Jun-20 06:00N 37°17' E 001°17'612.2
2017-Jun-20 05:30N 37°15' E 001°10'612.4
2017-Jun-20 05:00N 37°13' E 001°02'612.7
2017-Jun-20 04:30N 37°11' E 000°55'712.8
2017-Jun-20 03:59N 37°08' E 000°47'612.8
2017-Jun-20 03:30N 37°06' E 000°39'612.9
2017-Jun-20 03:00N 37°04' E 000°32'612.9
2017-Jun-20 02:30N 37°02' E 000°24'612.8
2017-Jun-20 02:00N 37°00' E 000°16'612.6
2017-Jun-20 01:30N 36°59' E 000°09'612.7
2017-Jun-20 01:00N 36°57' E 000°01'612.5
2017-Jun-20 00:30N 36°54' W 000°06'812.3
2017-Jun-19 23:51N 36°52' W 000°16'1312.0
2017-Jun-19 22:46N 36°48' W 000°31'411.9
2017-Jun-19 22:25N 36°47' W 000°36'511.8
2017-Jun-19 22:00N 36°45' W 000°42'811.9
2017-Jun-19 21:21N 36°43' W 000°51'1712.0
2017-Jun-19 19:57N 36°37' W 001°11'512.3
2017-Jun-19 19:30N 36°35' W 001°17'22712.3
2017-Jun-19 01:05N 35°55' W 005°53'112.2
2017-Jun-19 01:00N 35°55' W 005°55'612.7
2017-Jun-19 00:30N 35°55' W 006°02'912.9
2017-Jun-18 23:48N 35°53' W 006°14'6412.9
2017-Jun-18 18:49N 34°55' W 006°47'412.7
2017-Jun-18 18:30N 34°51' W 006°49'612.6
2017-Jun-18 18:00N 34°46' W 006°52'612.8
2017-Jun-18 17:30N 34°40' W 006°55'813.1
2017-Jun-18 16:55N 34°32' W 006°58'513.5
2017-Jun-18 16:31N 34°27' W 007°01'813.3
2017-Jun-18 15:57N 34°20' W 007°04'613.0
2017-Jun-18 15:28N 34°14' W 007°06'813.1
2017-Jun-18 14:50N 34°07' W 007°11'412.9
2017-Jun-18 14:30N 34°03' W 007°13'1511.5
2017-Jun-18 13:12N 33°49' W 007°20'611.3
2017-Jun-18 12:40N 33°44' W 007°23'  

Dump ship's entire track history